Time;durP1;ratioP1;P1;durP2;ratioP2;P2;SDS_P1;SDS_P2;PMS_P1;PMS_P2;Temp;Humidity;BMP_temperature;BMP_pressure;BME280_temperature;BME280_humidity;BME280_pressure;Samples;Min_cycle;Max_cycle;Signal;HPM_P1;HPM_P2
2022/06/29 00:00:18;;;;;;;3.53;1.27;;;18.70;92.40;;;;;;5031388;28;20091;-72
2022/06/29 00:02:45;;;;;;;1.98;1.23;;;18.70;93.20;;;;;;5030918;28;20053;-71
2022/06/29 00:05:12;;;;;;;1.55;1.00;;;18.60;92.90;;;;;;5031138;28;20382;-71
2022/06/29 00:07:38;;;;;;;5.82;1.80;;;18.50;92.90;;;;;;5029274;28;20155;-71
2022/06/29 00:10:04;;;;;;;11.38;1.83;;;18.60;93.20;;;;;;5031102;28;20546;-71
2022/06/29 00:12:30;;;;;;;2.40;1.30;;;18.60;92.90;;;;;;5031166;28;20022;-71
2022/06/29 00:14:56;;;;;;;3.55;1.80;;;18.40;93.00;;;;;;5031168;28;20025;-72
2022/06/29 00:17:22;;;;;;;5.47;1.52;;;18.40;93.20;;;;;;5030902;28;20108;-71
2022/06/29 00:19:48;;;;;;;3.85;1.42;;;18.50;93.20;;;;;;5030971;28;20029;-71
2022/06/29 00:22:15;;;;;;;5.57;1.40;;;18.40;93.30;;;;;;5030276;28;20075;-71
2022/06/29 00:24:40;;;;;;;2.97;1.30;;;19.40;93.60;;;;;;5031037;28;20026;-71
2022/06/29 00:27:06;;;;;;;4.43;1.38;;;18.20;93.40;;;;;;5030708;28;20029;-72
2022/06/29 00:29:32;;;;;;;2.75;1.42;;;19.50;93.90;;;;;;5031011;28;20022;-72
2022/06/29 00:31:57;;;;;;;4.03;1.52;;;18.30;93.70;;;;;;5030837;28;20060;-71
2022/06/29 00:34:23;;;;;;;1.85;1.05;;;18.20;94.00;;;;;;5030560;28;20026;-71
2022/06/29 00:36:48;;;;;;;2.63;1.52;;;18.60;93.80;;;;;;5030110;28;20040;-72
2022/06/29 00:39:14;;;;;;;3.58;2.17;;;18.40;93.70;;;;;;5030471;28;20107;-72
2022/06/29 00:41:41;;;;;;;5.45;2.15;;;18.40;93.70;;;;;;5030717;28;20427;-72
2022/06/29 00:44:09;;;;;;;8.43;1.70;;;18.40;93.90;;;;;;5030571;28;20095;-72
2022/06/29 00:46:36;;;;;;;3.42;2.22;;;18.50;93.70;;;;;;5030451;28;20028;-71
2022/06/29 00:49:02;;;;;;;3.17;1.73;;;18.40;93.60;;;;;;5030313;28;20026;-72
2022/06/29 00:51:29;;;;;;;3.40;1.60;;;18.50;93.50;;;;;;5028690;28;20360;-71
2022/06/29 00:53:58;;;;;;;6.00;1.73;;;18.60;93.80;;;;;;5029166;28;20113;-72
2022/06/29 00:56:24;;;;;;;3.00;1.48;;;18.50;93.90;;;;;;5030554;28;20033;-72
2022/06/29 00:58:55;;;;;;;3.60;1.70;;;18.50;93.80;;;;;;5030157;28;20063;-72
2022/06/29 01:01:20;;;;;;;5.03;1.67;;;18.20;93.90;;;;;;5029324;28;20025;-72
2022/06/29 01:03:46;;;;;;;2.28;1.48;;;18.20;93.70;;;;;;5029969;28;20032;-73
2022/06/29 01:06:12;;;;;;;2.95;2.33;;;18.20;93.90;;;;;;5029808;28;20021;-72
2022/06/29 01:08:37;;;;;;;4.05;1.70;;;18.10;93.90;;;;;;5029919;28;20057;-71
2022/06/29 01:11:03;;;;;;;2.53;1.75;;;18.10;94.20;;;;;;5029975;28;20480;-71
2022/06/29 01:13:28;;;;;;;4.20;2.30;;;18.00;94.20;;;;;;5030437;28;20518;-71
2022/06/29 01:15:54;;;;;;;6.45;2.88;;;17.60;99.90;;;;;;5029847;28;20059;-72
2022/06/29 01:18:19;;;;;;;2.55;1.95;;;17.90;94.60;;;;;;5030090;28;20033;-72
2022/06/29 01:20:45;;;;;;;3.45;1.92;;;17.90;94.70;;;;;;5029143;28;20049;-72
2022/06/29 01:23:10;;;;;;;3.08;1.77;;;17.70;94.70;;;;;;5030028;28;20195;-72
2022/06/29 01:25:36;;;;;;;3.15;1.83;;;17.70;94.80;;;;;;5029929;28;20130;-71
2022/06/29 01:28:02;;;;;;;4.57;2.00;;;17.60;95.00;;;;;;5029790;28;20025;-72
2022/06/29 01:30:27;;;;;;;3.83;1.70;;;17.60;99.90;;;;;;5030226;28;20056;-71
2022/06/29 01:32:53;;;;;;;3.00;1.90;;;;;;;;;;5029576;28;20083;-71
2022/06/29 01:35:22;;;;;;;3.42;1.80;;;17.60;94.10;;;;;;5027879;28;20033;-72
2022/06/29 01:37:48;;;;;;;3.05;2.05;;;17.60;95.20;;;;;;5029625;28;20025;-72
2022/06/29 01:40:14;;;;;;;4.78;2.03;;;17.60;95.30;;;;;;5029686;28;20041;-71
2022/06/29 01:42:39;;;;;;;3.72;2.55;;;17.60;95.40;;;;;;5029668;28;20037;-72
2022/06/29 01:45:06;;;;;;;4.60;2.10;;;17.50;95.40;;;;;;5028296;28;20040;-72
2022/06/29 01:47:31;;;;;;;4.30;2.58;;;17.50;95.20;;;;;;5029738;28;20425;-72
2022/06/29 01:49:57;;;;;;;3.58;2.35;;;17.40;99.90;;;;;;5029057;28;20034;-72
2022/06/29 01:52:22;;;;;;;3.33;2.10;;;17.40;95.50;;;;;;5029702;28;20482;-71
2022/06/29 01:54:48;;;;;;;3.38;2.33;;;17.50;95.50;;;;;;5029451;28;20037;-72
2022/06/29 01:57:14;;;;;;;4.43;2.20;;;;;;;;;;5028305;28;20021;-71
2022/06/29 01:59:39;;;;;;;3.80;2.33;;;17.40;94.50;;;;;;5029523;28;20033;-72
2022/06/29 02:02:05;;;;;;;4.05;2.53;;;17.20;99.90;;;;;;5029394;28;20112;-72
2022/06/29 02:04:30;;;;;;;5.35;2.40;;;17.40;95.70;;;;;;5030142;28;20064;-72
2022/06/29 02:06:56;;;;;;;4.72;2.35;;;17.40;95.70;;;;;;5030107;28;20180;-71
2022/06/29 02:09:22;;;;;;;5.22;2.47;;;17.40;95.80;;;;;;5029518;28;20029;-72
2022/06/29 02:11:47;;;;;;;4.47;2.65;;;17.40;95.80;;;;;;5029492;28;20128;-72
2022/06/29 02:14:13;;;;;;;5.75;2.85;;;17.40;95.80;;;;;;5032583;28;20094;-72
2022/06/29 02:16:39;;;;;;;4.90;2.45;;;17.40;99.90;;;;;;5033580;28;20017;-72
2022/06/29 02:19:04;;;;;;;4.22;2.88;;;17.20;99.90;;;;;;5032507;28;20026;-72
2022/06/29 02:21:30;;;;;;;3.15;2.53;;;17.20;95.80;;;;;;5033511;28;20036;-71
2022/06/29 02:23:56;;;;;;;4.47;2.78;;;17.40;96.00;;;;;;5033140;28;20033;-71
2022/06/29 02:26:21;;;;;;;6.22;3.42;;;17.30;96.00;;;;;;5033171;28;20053;-72
2022/06/29 02:28:47;;;;;;;4.85;2.70;;;17.30;96.20;;;;;;5033111;28;20096;-71
2022/06/29 02:36:41;;;;;;;5.05;2.70;;;17.10;95.80;;;;;;5021007;28;20036;-71
2022/06/29 02:39:06;;;;;;;5.50;3.00;;;17.10;96.50;;;;;;5032841;28;20395;-71
2022/06/29 02:41:32;;;;;;;3.53;3.00;;;17.00;96.70;;;;;;5032995;28;20283;-72
2022/06/29 02:43:58;;;;;;;4.20;3.20;;;17.00;96.70;;;;;;5032762;28;20033;-71
2022/06/29 02:46:24;;;;;;;5.10;2.75;;;17.00;96.90;;;;;;5032989;28;20029;-71
2022/06/29 02:48:50;;;;;;;4.03;3.08;;;14.70;95.90;;;;;;5031465;28;20026;-72
2022/06/29 02:51:16;;;;;;;4.97;3.22;;;16.60;99.90;;;;;;5032484;28;20037;-72
2022/06/29 02:53:41;;;;;;;5.15;3.47;;;16.90;97.00;;;;;;5032811;28;20041;-72
2022/06/29 02:56:07;;;;;;;7.65;3.85;;;16.90;97.10;;;;;;5032581;28;20025;-72
2022/06/29 02:58:33;;;;;;;6.90;3.33;;;16.80;97.20;;;;;;5032688;28;20046;-71
2022/06/29 03:00:59;;;;;;;5.18;3.10;;;16.80;97.20;;;;;;5031940;28;20040;-72
2022/06/29 03:03:24;;;;;;;3.70;3.30;;;16.80;97.30;;;;;;5032595;28;20021;-71
2022/06/29 03:05:50;;;;;;;3.28;2.97;;;16.40;99.90;;;;;;5031002;28;20057;-71
2022/06/29 03:08:15;;;;;;;9.65;3.90;;;16.80;97.50;;;;;;5032207;28;20049;-72
2022/06/29 03:10:41;;;;;;;4.30;2.88;;;16.70;97.50;;;;;;5032285;28;20025;-71
2022/06/29 03:13:07;;;;;;;5.72;3.25;;;16.70;99.90;;;;;;5032181;28;20116;-73
2022/06/29 03:15:32;;;;;;;4.85;3.28;;;16.60;97.60;;;;;;5032053;28;20477;-71
2022/06/29 03:17:58;;;;;;;8.10;4.40;;;16.70;97.80;;;;;;5032263;28;20112;-72
2022/06/29 03:20:23;;;;;;;4.97;3.90;;;16.90;98.00;;;;;;5032644;28;20041;-72
2022/06/29 03:22:49;;;;;;;4.93;3.40;;;16.70;97.90;;;;;;5032014;28;20083;-72
2022/06/29 03:25:16;;;;;;;4.82;3.60;;;16.60;99.90;;;;;;5031001;28;20022;-72
2022/06/29 03:27:42;;;;;;;4.32;3.60;;;16.50;98.10;;;;;;5031827;28;20049;-71
2022/06/29 03:30:08;;;;;;;5.05;3.90;;;16.50;98.10;;;;;;5031615;28;20479;-72
2022/06/29 03:32:34;;;;;;;6.07;4.43;;;16.40;99.90;;;;;;5031838;28;20022;-71
2022/06/29 03:35:00;;;;;;;6.45;3.70;;;17.80;98.60;;;;;;5031826;28;20036;-72
2022/06/29 03:37:26;;;;;;;6.20;3.58;;;16.30;99.90;;;;;;5032168;28;20092;-72
2022/06/29 03:39:51;;;;;;;4.43;3.92;;;16.30;99.90;;;;;;5031646;28;20037;-72
2022/06/29 03:42:17;;;;;;;4.03;3.33;;;16.30;99.90;;;;;;5032104;28;20021;-71
2022/06/29 03:44:42;;;;;;;4.25;3.00;;;16.20;99.90;;;;;;5031176;28;20033;-71
2022/06/29 03:47:08;;;;;;;3.92;3.42;;;16.30;98.70;;;;;;5031652;28;20079;-72
2022/06/29 03:49:35;;;;;;;4.93;4.45;;;16.20;99.90;;;;;;5031551;28;20076;-72
2022/06/29 03:52:01;;;;;;;4.95;3.95;;;16.10;99.90;;;;;;5031496;28;20068;-72
2022/06/29 03:54:26;;;;;;;4.97;4.13;;;16.10;99.90;;;;;;5031800;28;20026;-72
2022/06/29 03:56:52;;;;;;;6.80;4.78;;;16.10;99.90;;;;;;5031273;28;20474;-71
2022/06/29 03:59:17;;;;;;;4.88;3.75;;;16.20;99.90;;;;;;5031001;28;20418;-71
2022/06/29 04:01:43;;;;;;;4.70;4.20;;;16.30;99.20;;;;;;5031183;28;20026;-71
2022/06/29 04:04:09;;;;;;;7.25;4.45;;;16.30;99.90;;;;;;5031304;28;20026;-71
2022/06/29 04:06:34;;;;;;;5.80;4.35;;;16.30;99.30;;;;;;5031269;28;20108;-71
2022/06/29 04:09:00;;;;;;;7.72;4.10;;;;;;;;;;5030995;28;20025;-71
2022/06/29 04:14:10;;;;;;;5.65;4.43;;;16.40;98.80;;;;;;5030608;28;20075;-71
2022/06/29 04:16:36;;;;;;;5.03;4.60;;;16.30;99.40;;;;;;5031142;28;20025;-72
2022/06/29 04:19:01;;;;;;;4.72;4.05;;;16.30;99.90;;;;;;5029420;28;20534;-71
2022/06/29 04:21:27;;;;;;;6.10;5.50;;;16.60;99.90;;;;;;5031260;28;20044;-71
2022/06/29 04:23:52;;;;;;;4.72;4.32;;;16.20;99.90;;;;;;5030747;28;20112;-71
2022/06/29 04:26:19;;;;;;;8.85;5.47;;;16.40;99.50;;;;;;5030839;28;20817;-71
2022/06/29 04:28:44;;;;;;;6.38;4.93;;;16.40;99.60;;;;;;5030792;28;20025;-71
2022/06/29 04:31:10;;;;;;;6.18;4.43;;;17.60;99.90;;;;;;5031949;28;20497;-71
2022/06/29 04:33:35;;;;;;;6.13;4.10;;;16.70;99.90;;;;;;5031547;28;20523;-71
2022/06/29 04:36:01;;;;;;;4.20;3.90;;;17.70;99.90;;;;;;5030367;28;20025;-71
2022/06/29 04:38:27;;;;;;;4.90;4.50;;;16.50;99.70;;;;;;5030856;28;20100;-72
2022/06/29 04:40:52;;;;;;;4.43;4.07;;;16.70;99.90;;;;;;5030864;28;20095;-72
2022/06/29 04:43:18;;;;;;;5.95;5.28;;;16.50;99.80;;;;;;5031332;28;20025;-70
2022/06/29 04:48:27;;;;;;;;;;;16.60;99.30;;;;;;5018193;28;20029;-71
2022/06/29 04:50:53;;;;;;;5.38;4.57;;;16.60;99.90;;;;;;5030406;28;20671;-71
2022/06/29 04:53:18;;;;;;;5.60;4.45;;;16.70;99.80;;;;;;5030372;28;20043;-71
2022/06/29 04:55:44;;;;;;;5.15;4.55;;;16.80;99.90;;;;;;5030400;28;20072;-71
2022/06/29 04:58:09;;;;;;;5.25;4.18;;;16.80;99.80;;;;;;5029820;28;20119;-71
2022/06/29 05:00:35;;;;;;;5.55;5.07;;;16.90;99.70;;;;;;5030255;28;20040;-72
2022/06/29 05:03:00;;;;;;;5.05;4.55;;;16.90;99.70;;;;;;5029904;28;20106;-71
2022/06/29 05:05:26;;;;;;;5.20;4.43;;;17.00;99.60;;;;;;5030295;28;20064;-71
2022/06/29 05:07:52;;;;;;;5.40;4.90;;;17.20;99.60;;;;;;5030057;28;20494;-71
2022/06/29 05:10:17;;;;;;;5.68;4.95;;;17.20;99.50;;;;;;5030031;28;20494;-71
2022/06/29 05:12:43;;;;;;;9.35;4.63;;;17.20;99.40;;;;;;5029718;28;20053;-72
2022/06/29 05:15:09;;;;;;;5.10;4.60;;;17.30;99.40;;;;;;5030199;28;20028;-71
2022/06/29 05:17:37;;;;;;;5.70;4.45;;;17.40;99.00;;;;;;5029988;28;20144;-71
2022/06/29 05:20:08;;;;;;;5.13;4.57;;;17.40;98.40;;;;;;5029649;28;20120;-71
2022/06/29 05:22:35;;;;;;;7.25;4.45;;;17.60;99.20;;;;;;5030022;28;20021;-71
2022/06/29 05:25:01;;;;;;;4.43;3.80;;;17.70;98.80;;;;;;5029873;28;20498;-71
2022/06/29 05:27:27;;;;;;;4.88;4.43;;;17.80;98.70;;;;;;5029724;28;20099;-71
2022/06/29 05:29:52;;;;;;;7.38;5.03;;;17.80;98.50;;;;;;5029908;28;20371;-71
2022/06/29 05:32:18;;;;;;;7.75;4.78;;;18.90;98.60;;;;;;5029946;28;20056;-71
2022/06/29 05:34:44;;;;;;;5.50;4.75;;;18.90;98.50;;;;;;5029485;28;20036;-71
2022/06/29 05:37:09;;;;;;;7.05;4.78;;;18.00;98.20;;;;;;5029818;28;20029;-71
2022/06/29 05:39:35;;;;;;;5.32;4.82;;;19.10;98.30;;;;;;5029761;28;20034;-71
2022/06/29 05:42:00;;;;;;;5.80;4.95;;;19.80;98.20;;;;;;5029138;28;20026;-71
2022/06/29 05:44:26;;;;;;;4.63;3.72;;;18.20;97.70;;;;;;5029859;28;20429;-71
2022/06/29 05:46:51;;;;;;;8.82;4.30;;;18.30;97.90;;;;;;5028879;28;20104;-71
2022/06/29 05:49:17;;;;;;;3.95;3.65;;;18.40;97.70;;;;;;5035896;28;20083;-71
2022/06/29 05:51:42;;;;;;;5.95;4.55;;;18.50;97.60;;;;;;5035568;28;20021;-71
2022/06/29 05:54:08;;;;;;;5.00;3.97;;;18.50;97.30;;;;;;5035605;28;20476;-71
2022/06/29 05:56:33;;;;;;;5.45;4.32;;;18.60;97.20;;;;;;5035367;28;20025;-71
2022/06/29 05:58:59;;;;;;;5.22;4.72;;;18.60;97.10;;;;;;5035335;28;20022;-71
2022/06/29 06:01:24;;;;;;;4.75;4.28;;;18.60;97.00;;;;;;5035962;28;20372;-71
2022/06/29 06:03:50;;;;;;;4.78;4.38;;;18.70;97.00;;;;;;5032885;28;20053;-71
2022/06/29 06:06:16;;;;;;;6.88;4.75;;;18.70;96.90;;;;;;5047697;28;20029;-71
2022/06/29 06:08:41;;;;;;;5.68;4.72;;;19.80;97.20;;;;;;5029045;28;20081;-71
2022/06/29 06:11:07;;;;;;;9.77;5.60;;;18.80;96.90;;;;;;5031187;28;20026;-71
2022/06/29 06:13:32;;;;;;;3.70;3.40;;;18.90;96.80;;;;;;5036018;28;20034;-72
2022/06/29 06:15:59;;;;;;;5.28;4.78;;;18.90;96.70;;;;;;5035788;28;20029;-71
2022/06/29 06:18:25;;;;;;;6.80;4.78;;;19.00;96.50;;;;;;5035839;28;20021;-71
2022/06/29 06:20:51;;;;;;;8.65;4.72;;;;;;;;;;5035797;28;20498;-72
2022/06/29 06:23:16;;;;;;;10.30;5.45;;;19.20;95.40;;;;;;5035954;28;20484;-71
2022/06/29 06:25:42;;;;;;;6.85;5.00;;;19.30;96.40;;;;;;5035347;28;20033;-71
2022/06/29 06:28:07;;;;;;;5.28;4.88;;;19.30;96.30;;;;;;5035814;28;20036;-72
2022/06/29 06:30:33;;;;;;;4.95;4.55;;;19.40;96.20;;;;;;5036087;28;20045;-72
2022/06/29 06:32:59;;;;;;;7.80;6.22;;;19.40;96.20;;;;;;5035599;28;20025;-72
2022/06/29 06:35:24;;;;;;;5.07;4.53;;;19.50;96.10;;;;;;5036019;28;20030;-72
2022/06/29 06:37:52;;;;;;;5.80;4.93;;;19.50;96.40;;;;;;5035847;28;20096;-72
2022/06/29 06:43:02;;;;;;;7.57;4.75;;;19.60;95.30;;;;;;5035734;28;20109;-72
2022/06/29 06:45:27;;;;;;;5.10;4.60;;;19.70;95.90;;;;;;5035961;28;20033;-72
2022/06/29 06:47:53;;;;;;;4.63;4.25;;;19.70;95.90;;;;;;5035640;28;20057;-72
2022/06/29 06:50:18;;;;;;;7.05;5.00;;;19.70;95.80;;;;;;5035726;28;20037;-72
2022/06/29 06:52:44;;;;;;;5.18;4.68;;;19.80;95.80;;;;;;5035650;28;20029;-73
2022/06/29 06:55:10;;;;;;;5.65;4.75;;;19.90;95.90;;;;;;5035356;28;20424;-72
2022/06/29 06:57:35;;;;;;;7.82;5.95;;;20.90;96.20;;;;;;5036265;28;20021;-73
2022/06/29 07:00:02;;;;;;;5.00;3.80;;;20.10;95.70;;;;;;5033305;28;20073;-72
2022/06/29 07:02:28;;;;;;;7.43;4.55;;;20.20;95.60;;;;;;5032718;28;20017;-73
2022/06/29 07:04:53;;;;;;;5.55;3.90;;;20.30;95.50;;;;;;5032464;28;20402;-73
2022/06/29 07:07:19;;;;;;;6.60;4.53;;;20.40;95.40;;;;;;5032315;28;20081;-74
2022/06/29 07:09:44;;;;;;;5.13;4.47;;;18.10;94.70;;;;;;5031918;28;20375;-73
2022/06/29 07:12:10;;;;;;;4.80;4.13;;;20.70;95.20;;;;;;5032396;28;20013;-74
2022/06/29 07:14:35;;;;;;;4.10;2.92;;;20.60;95.00;;;;;;5032272;28;20037;-73
2022/06/29 07:17:01;;;;;;;6.47;4.28;;;20.80;94.90;;;;;;5032373;28;20029;-73
2022/06/29 07:19:26;;;;;;;5.80;3.63;;;23.20;95.20;;;;;;5032395;28;20034;-73
2022/06/29 07:21:52;;;;;;;5.53;3.67;;;21.00;94.60;;;;;;5032098;28;20459;-74
2022/06/29 07:24:18;;;;;;;9.65;3.95;;;21.20;94.60;;;;;;5031757;28;20792;-73
2022/06/29 07:26:44;;;;;;;6.00;3.10;;;21.20;94.50;;;;;;5031949;28;20414;-74
2022/06/29 07:29:09;;;;;;;6.53;3.17;;;21.30;94.30;;;;;;5032011;28;20029;-74
2022/06/29 07:31:35;;;;;;;4.97;2.78;;;21.40;94.40;;;;;;5032099;28;20017;-74
2022/06/29 07:34:00;;;;;;;4.60;2.92;;;21.70;94.20;;;;;;5032070;28;20032;-74
2022/06/29 07:36:26;;;;;;;3.95;2.78;;;21.60;93.90;;;;;;5031622;28;20474;-74
2022/06/29 07:38:52;;;;;;;5.30;2.92;;;21.70;93.80;;;;;;5027179;28;20029;-73
2022/06/29 07:41:18;;;;;;;4.82;2.90;;;21.80;93.70;;;;;;5031171;28;20132;-74
2022/06/29 07:43:46;;;;;;;8.00;2.90;;;21.90;93.70;;;;;;5030633;28;20466;-74
2022/06/29 07:46:12;;;;;;;3.38;2.60;;;22.00;93.00;;;;;;5031546;28;20046;-74
2022/06/29 07:48:37;;;;;;;5.88;2.50;;;22.20;93.30;;;;;;5029775;28;20116;-73
2022/06/29 07:51:03;;;;;;;4.50;2.45;;;22.30;93.00;;;;;;5030310;28;20104;-73
2022/06/29 07:53:29;;;;;;;3.38;2.50;;;22.30;92.70;;;;;;5030039;28;20034;-73
2022/06/29 07:55:55;;;;;;;4.43;2.53;;;22.50;92.30;;;;;;5030894;28;20028;-73
2022/06/29 07:58:21;;;;;;;4.55;2.75;;;22.50;92.20;;;;;;5031056;28;20438;-73
2022/06/29 08:00:47;;;;;;;3.85;2.20;;;22.60;92.20;;;;;;5031059;28;20390;-73
2022/06/29 08:03:12;;;;;;;4.45;2.63;;;22.80;91.90;;;;;;5030856;28;20018;-73
2022/06/29 08:05:38;;;;;;;3.88;2.17;;;22.80;91.70;;;;;;5030857;28;20056;-74
2022/06/29 08:08:04;;;;;;;3.88;2.00;;;22.90;91.50;;;;;;5031188;28;20042;-73
2022/06/29 08:10:33;;;;;;;4.15;2.47;;;23.10;91.30;;;;;;5030932;28;20076;-72
2022/06/29 08:12:59;;;;;;;6.15;2.83;;;23.20;91.20;;;;;;5031086;28;20036;-72
2022/06/29 08:15:26;;;;;;;4.93;2.70;;;23.10;91.20;;;;;;5031361;28;20030;-73
2022/06/29 08:17:52;;;;;;;4.20;2.67;;;23.20;91.30;;;;;;5031175;28;20029;-72
2022/06/29 08:20:19;;;;;;;3.75;2.95;;;23.10;91.00;;;;;;5030571;28;20033;-72
2022/06/29 08:22:45;;;;;;;7.53;2.63;;;23.30;91.10;;;;;;5030938;28;20041;-72
2022/06/29 08:25:11;;;;;;;3.35;2.05;;;24.20;90.90;;;;;;5030961;28;20498;-72
2022/06/29 08:27:37;;;;;;;5.35;1.98;;;23.40;90.70;;;;;;5030992;28;20030;-72
2022/06/29 08:30:05;;;;;;;3.45;2.25;;;23.60;90.60;;;;;;5030862;28;20026;-72
2022/06/29 08:32:30;;;;;;;2.13;1.42;;;23.70;90.10;;;;;;5030882;28;20025;-73
2022/06/29 08:35:01;;;;;;;8.13;2.08;;;23.80;90.00;;;;;;5030455;28;20075;-73
2022/06/29 08:37:30;;;;;;;5.38;1.98;;;23.80;88.10;;;;;;5030910;28;20036;-73
2022/06/29 08:39:55;;;;;;;4.28;2.15;;;23.90;89.50;;;;;;5030606;28;20040;-73
2022/06/29 08:42:22;;;;;;;9.48;3.17;;;23.90;89.20;;;;;;5030568;28;20034;-73
2022/06/29 08:44:49;;;;;;;6.53;2.05;;;25.30;90.40;;;;;;5030546;28;20508;-73
2022/06/29 08:47:15;;;;;;;5.18;2.03;;;24.90;90.00;;;;;;5030592;28;20028;-72
2022/06/29 08:49:41;;;;;;;2.17;1.55;;;24.20;89.20;;;;;;5030186;28;20021;-72
2022/06/29 08:52:08;;;;;;;4.05;1.80;;;24.20;88.50;;;;;;5030385;28;20025;-72
2022/06/29 08:54:41;;;;;;;4.15;2.05;;;24.20;88.20;;;;;;5030585;28;20018;-72
2022/06/29 08:57:07;;;;;;;5.00;1.53;;;25.70;88.80;;;;;;5030351;28;20072;-73
2022/06/29 08:59:36;;;;;;;4.00;1.90;;;24.60;87.10;;;;;;5030656;28;20112;-73
2022/06/29 09:02:02;;;;;;;3.47;1.52;;;24.30;86.90;;;;;;5028822;28;20080;-73
2022/06/29 09:04:28;;;;;;;3.65;1.42;;;24.40;87.00;;;;;;5030221;28;20344;-72
2022/06/29 09:06:55;;;;;;;2.45;1.48;;;24.30;87.00;;;;;;5029969;28;20079;-72
2022/06/29 09:09:22;;;;;;;2.80;1.60;;;24.30;86.90;;;;;;5030088;28;20057;-73
2022/06/29 09:11:50;;;;;;;4.30;1.23;;;24.60;86.50;;;;;;5030141;28;20021;-72
2022/06/29 09:14:18;;;;;;;2.15;1.50;;;24.70;86.30;;;;;;5029992;28;20049;-73
2022/06/29 09:17:01;;;;;;;2.92;1.60;;;25.00;85.40;;;;;;5030180;28;20025;-72
2022/06/29 09:19:43;;;;;;;3.70;1.30;;;25.20;84.70;;;;;;5029708;28;20374;-72
2022/06/29 09:22:09;;;;;;;4.22;1.60;;;25.40;83.50;;;;;;5029412;28;20036;-72
2022/06/29 09:24:34;;;;;;;2.95;1.15;;;25.60;81.70;;;;;;5030134;28;20025;-72
2022/06/29 09:27:05;;;;;;;3.38;1.45;;;25.70;82.10;;;;;;5029813;28;20052;-73
2022/06/29 09:29:36;;;;;;;10.00;1.83;;;25.90;80.60;;;;;;5030034;28;20105;-72
2022/06/29 09:32:01;;;;;;;2.15;1.30;;;26.00;82.10;;;;;;5029988;28;20029;-73
2022/06/29 09:34:28;;;;;;;3.13;1.75;;;26.10;82.00;;;;;;5028340;28;20021;-72
2022/06/29 09:36:58;;;;;;;2.58;1.58;;;25.90;81.60;;;;;;5029990;28;20474;-72
2022/06/29 09:39:44;;;;;;;3.03;1.50;;;26.00;81.60;;;;;;5030089;28;20029;-72
2022/06/29 09:42:15;;;;;;;4.57;1.77;;;26.80;82.30;;;;;;5029847;28;20034;-72
2022/06/29 09:44:41;;;;;;;3.75;2.22;;;26.30;81.30;;;;;;5028202;28;20068;-72
2022/06/29 09:47:11;;;;;;;2.72;1.55;;;26.10;80.70;;;;;;5029373;28;20025;-72
2022/06/29 09:49:37;;;;;;;3.10;1.70;;;26.30;80.50;;;;;;5029696;28;20036;-72
2022/06/29 09:52:05;;;;;;;2.28;1.95;;;26.30;79.60;;;;;;5029456;28;20033;-72
2022/06/29 09:54:54;;;;;;;3.05;1.20;;;26.60;79.20;;;;;;5029830;28;20104;-73
2022/06/29 09:57:23;;;;;;;5.10;1.73;;;26.70;77.10;;;;;;5029605;28;20079;-72
2022/06/29 10:02:44;;;;;;;3.58;1.50;;;28.20;77.90;;;;;;5029265;28;20079;-72
2022/06/29 10:05:14;;;;;;;3.08;0.80;;;27.00;77.00;;;;;;5029777;28;20464;-72
2022/06/29 10:07:46;;;;;;;2.13;0.90;;;27.00;73.90;;;;;;5029340;28;20124;-72
2022/06/29 10:10:13;;;;;;;2.83;1.20;;;26.50;72.50;;;;;;5029569;28;20029;-72
2022/06/29 10:15:36;;;;;;;4.22;1.10;;;27.10;72.10;;;;;;5029404;28;20496;-72
2022/06/29 10:18:25;;;;;;;1.55;0.70;;;26.90;73.90;;;;;;5028834;28;20029;-71
2022/06/29 10:20:53;;;;;;;2.17;0.90;;;27.00;73.20;;;;;;5029213;28;20030;-72
2022/06/29 10:23:44;;;;;;;2.75;0.98;;;27.00;74.50;;;;;;5029376;28;20552;-72
2022/06/29 10:26:32;;;;;;;1.88;0.88;;;26.90;71.40;;;;;;5029110;28;20024;-72
2022/06/29 10:29:09;;;;;;;0.85;0.52;;;26.60;71.90;;;;;;5029259;28;20097;-72
2022/06/29 10:31:53;;;;;;;2.00;0.73;;;26.60;73.10;;;;;;5029168;28;20037;-72
2022/06/29 10:34:31;;;;;;;3.40;0.85;;;26.70;72.30;;;;;;5030964;28;20022;-72
2022/06/29 10:37:02;;;;;;;1.80;0.60;;;26.70;74.30;;;;;;5032954;28;20067;-72
2022/06/29 10:39:49;;;;;;;1.17;0.73;;;26.80;74.20;;;;;;5033032;28;20434;-72
2022/06/29 10:45:17;;;;;;;3.05;0.80;;;27.50;72.10;;;;;;5019223;28;20033;-72
2022/06/29 10:47:52;;;;;;;2.42;1.10;;;27.60;71.00;;;;;;5032779;28;20039;-74
2022/06/29 10:50:22;;;;;;;3.63;1.30;;;27.70;70.30;;;;;;5032815;28;20022;-72
2022/06/29 10:52:49;;;;;;;4.18;1.05;;;27.60;70.20;;;;;;5032776;28;20158;-72
2022/06/29 10:55:16;;;;;;;3.35;0.95;;;27.40;72.20;;;;;;5032777;28;20029;-72
2022/06/29 10:57:44;;;;;;;2.17;1.23;;;27.30;72.20;;;;;;5032582;28;20053;-73
2022/06/29 11:00:19;;;;;;;2.80;1.20;;;27.10;72.90;;;;;;5031901;28;20039;-73
2022/06/29 11:02:45;;;;;;;2.05;1.15;;;27.10;71.40;;;;;;5032648;28;20048;-73
2022/06/29 11:05:11;;;;;;;2.65;1.13;;;26.90;73.20;;;;;;5032261;28;20061;-73
2022/06/29 11:13:37;;;;;;;1.75;1.10;;;26.90;74.70;;;;;;5032619;28;20036;-73
2022/06/29 11:16:05;;;;;;;4.68;1.17;;;26.90;74.40;;;;;;5031726;28;20028;-73
2022/06/29 11:18:32;;;;;;;1.80;1.13;;;27.10;74.20;;;;;;5032349;28;20032;-73
2022/06/29 11:21:02;;;;;;;3.15;1.30;;;26.80;74.50;;;;;;5032075;28;20026;-72
2022/06/29 11:23:29;;;;;;;5.15;1.35;;;28.10;75.50;;;;;;5032538;28;20021;-73
2022/06/29 11:25:55;;;;;;;2.55;0.93;;;27.20;74.70;;;;;;5031999;28;20536;-73
2022/06/29 11:28:23;;;;;;;3.42;0.85;;;26.60;73.30;;;;;;5032054;28;20057;-73
2022/06/29 11:30:58;;;;;;;2.40;0.65;;;26.90;72.50;;;;;;5031493;28;20494;-74
2022/06/29 11:33:27;;;;;;;2.20;0.80;;;26.90;71.70;;;;;;5032219;28;20025;-74
2022/06/29 11:35:53;;;;;;;5.57;1.33;;;26.90;70.00;;;;;;5031893;28;20113;-73
2022/06/29 11:38:19;;;;;;;1.77;0.50;;;26.70;69.70;;;;;;5031926;28;20702;-74
2022/06/29 11:40:49;;;;;;;2.40;0.80;;;26.90;69.00;;;;;;5031715;28;20036;-74
2022/06/29 11:43:16;;;;;;;0.98;0.55;;;26.90;68.80;;;;;;5031256;28;20919;-74
2022/06/29 11:45:53;;;;;;;3.55;0.90;;;27.00;69.70;;;;;;5031590;28;20034;-73
2022/06/29 11:48:23;;;;;;;1.77;0.65;;;27.00;70.50;;;;;;5032268;28;20036;-73
2022/06/29 11:50:51;;;;;;;1.27;0.70;;;27.70;71.00;;;;;;5032036;28;20057;-73
2022/06/29 11:53:40;;;;;;;1.67;0.70;;;27.00;70.00;;;;;;5031487;28;20013;-73
2022/06/29 11:56:17;;;;;;;2.28;0.60;;;27.00;68.00;;;;;;5031278;28;20462;-73
2022/06/29 11:58:47;;;;;;;0.90;0.63;;;27.00;68.10;;;;;;5031542;28;20022;-73
2022/06/29 12:01:15;;;;;;;1.20;0.60;;;27.00;69.70;;;;;;5032290;28;20037;-73
2022/06/29 12:03:57;;;;;;;1.15;0.68;;;26.90;69.40;;;;;;5031329;28;20368;-74
2022/06/29 12:06:25;;;;;;;1.00;0.60;;;27.10;69.40;;;;;;5031511;28;20120;-73
2022/06/29 12:08:52;;;;;;;1.75;0.73;;;27.20;68.90;;;;;;5029843;28;20055;-74
2022/06/29 12:11:19;;;;;;;1.42;0.68;;;28.10;69.20;;;;;;5031373;28;20021;-73
2022/06/29 12:13:44;;;;;;;2.08;0.70;;;27.10;68.10;;;;;;5030693;28;20026;-73
2022/06/29 12:16:11;;;;;;;5.07;0.70;;;27.20;67.10;;;;;;5031248;28;20022;-73
2022/06/29 12:18:36;;;;;;;3.08;0.80;;;27.60;67.70;;;;;;5031244;28;20155;-74
2022/06/29 12:21:02;;;;;;;1.58;0.60;;;27.30;67.10;;;;;;5029390;28;20499;-74
2022/06/29 12:23:28;;;;;;;2.85;1.15;;;27.70;66.90;;;;;;5031197;28;20038;-74
2022/06/29 12:25:55;;;;;;;1.55;0.70;;;28.90;67.30;;;;;;5030936;28;20187;-74
2022/06/29 12:28:21;;;;;;;2.33;0.98;;;27.60;66.90;;;;;;5030469;28;20470;-75
2022/06/29 12:30:47;;;;;;;2.50;1.00;;;27.60;66.90;;;;;;5030797;28;20052;-73
2022/06/29 12:33:12;;;;;;;1.45;0.90;;;27.80;66.20;;;;;;5030905;28;20093;-73
2022/06/29 12:35:38;;;;;;;1.80;0.90;;;28.00;66.10;;;;;;5030678;28;20021;-74
2022/06/29 12:38:04;;;;;;;2.15;0.80;;;28.10;66.20;;;;;;5030433;28;20373;-74
2022/06/29 12:40:31;;;;;;;3.95;1.17;;;27.90;66.10;;;;;;5030993;28;20044;-73
2022/06/29 12:42:57;;;;;;;3.38;1.00;;;28.00;65.30;;;;;;5030002;28;20470;-74
2022/06/29 12:45:24;;;;;;;2.55;1.10;;;27.80;65.50;;;;;;5030629;28;20040;-73
2022/06/29 12:47:50;;;;;;;2.60;0.82;;;28.60;66.60;;;;;;5030421;28;20513;-73
2022/06/29 12:50:17;;;;;;;2.17;0.93;;;27.80;66.00;;;;;;5030276;28;20483;-73
2022/06/29 12:52:46;;;;;;;0.98;0.55;;;27.70;65.80;;;;;;5030474;28;20056;-74
2022/06/29 12:55:15;;;;;;;2.92;0.82;;;27.70;65.90;;;;;;5030732;28;20025;-74
2022/06/29 12:57:42;;;;;;;2.75;0.77;;;27.80;65.60;;;;;;5029078;28;20029;-73
2022/06/29 13:00:08;;;;;;;3.30;1.13;;;27.90;65.40;;;;;;5030057;28;20084;-73
2022/06/29 13:02:34;;;;;;;2.15;0.88;;;28.00;65.10;;;;;;5028902;28;20021;-74
2022/06/29 13:05:00;;;;;;;1.25;0.82;;;27.80;64.70;;;;;;5029975;28;20070;-74
2022/06/29 13:07:29;;;;;;;11.02;2.70;;;27.80;64.20;;;;;;5030154;28;20125;-71
2022/06/29 13:09:56;;;;;;;1.75;0.80;;;28.10;63.60;;;;;;5029762;28;20051;-74
2022/06/29 13:12:22;;;;;;;2.80;0.90;;;28.80;65.40;;;;;;5030230;28;20022;-74
2022/06/29 13:14:48;;;;;;;1.95;0.85;;;28.40;64.50;;;;;;5030079;28;20028;-75